Latest Weather Observations for Braidwood

IDN60901

Issued at 1:21 pm EDT Saturday 16 October 2021 (issued every 10 minutes, with the page automatically refreshed every 10 minutes)

About weather observations | Map of Canberra area stations | Latest observations for Canberra area | Other Formats
Station Details ID: 069132 Name: BRAIDWOOD RACECOURSE AWS Lat: -35.43 Lon: 149.78 Height: 665.2 m
Data from the previous 72 hours. | See also: Recent months at Braidwood
Date/Time
EDT
Temp
°C
App
Temp
°C
Dew
Point
°C
Rel
Hum
%
Delta-T
°C
Wind Press
QNH
hPa
Press
MSL
hPa
Rain since
9am
mm
Dir  Spd
km/h
Gust
km/h
Spd
kts
Gust
kts
16/01:00pm 14.8 9.0 4.5 50 5.0 W 24 39 13 21 1002.1 1001.0 0.0
16/12:30pm 14.5 8.4 4.8 52 4.7 WNW 26 41 14 22 1002.2 1001.1 0.0
16/12:00pm 14.3 10.6 6.2 58 4.1 NW 15 22 8 12 1002.1 1001.0 0.0
16/11:30am 14.1 8.0 6.5 60 3.8 WNW 28 39 15 21 1002.2 1001.1 0.0
16/11:00am 13.7 8.9 7.2 65 3.3 NW 22 33 12 18 1002.1 1001.0 0.0
16/10:30am 13.5 9.3 7.3 66 3.1 NW 19 33 10 18 1002.3 1001.2 0.0
16/10:00am 10.7 6.1 5.7 71 2.4 NW 19 32 10 17 1002.2 1001.1 0.0
16/09:30am 10.5 6.3 5.9 73 2.2 NW 17 30 9 16 1002.3 1001.2 0.0
16/09:00am 9.7 5.8 5.3 74 2.1 NW 15 30 8 16 1002.1 1001.0 0.0
16/08:30am 9.6 4.8 5.4 75 2.0 NW 20 33 11 18 1001.7 1000.6 0.0
16/08:00am 8.0 3.2 4.9 81 1.4 NW 19 30 10 16 1001.0 999.9 0.0
16/07:30am 8.0 2.2 4.6 79 1.6 NW 24 37 13 20 1000.5 999.4 0.0
16/07:00am 7.6 1.8 4.4 80 1.5 NW 24 43 13 23 1000.0 998.8 0.0
16/06:30am 7.3 1.5 4.3 81 1.4 NW 24 41 13 22 999.8 998.6 0.0
16/06:00am 7.1 4.1 4.1 81 1.4 NW 9 24 5 13 999.6 998.5 0.0
16/05:30am 7.1 3.3 4.1 81 1.3 NW 13 22 7 12 999.3 998.2 0.0
16/05:00am 7.4 3.3 4.4 81 1.4 NW 15 26 8 14 999.4 998.3 0.0
16/04:30am 7.3 4.4 4.4 82 1.3 NW 9 15 5 8 999.4 998.3 0.0
16/04:00am 7.4 3.0 4.7 83 1.2 NW 17 24 9 13 999.3 998.2 0.0
16/03:30am 7.7 3.7 4.8 82 1.3 NW 15 28 8 15 999.5 998.4 0.0
16/03:00am 7.7 4.1 5.2 84 1.2 NW 13 24 7 13 999.6 998.5 0.0
16/02:30am 7.8 3.8 5.1 83 1.2 NW 15 28 8 15 1000.1 999.0 0.0
16/02:00am 7.7 4.5 5.0 83 1.3 NW 11 19 6 10 1000.4 999.3 0.0
16/01:30am 7.7 4.5 5.3 85 1.1 NW 11 20 6 11 1000.7 999.6 0.0
16/01:00am 7.9 5.6 5.9 87 0.9 NNW 7 20 4 11 1000.7 999.6 0.0
16/12:30am 7.5 5.2 5.6 88 0.9 NNW 7 15 4 8 1001.1 1000.0 0.0
16/12:00am 6.9 4.1 5.2 89 0.8 NNW 9 19 5 10 1001.4 1000.2 0.0
 
Date/Time
EDT
Temp
°C
App
Temp
°C
Dew
Point
°C
Rel
Hum
%
Delta-T
°C
Wind Press
QNH
hPa
Press
MSL
hPa
Rain since
9am
mm
Dir  Spd
km/h
Gust
km/h
Spd
kts
Gust
kts
15/11:30pm 7.2 4.5 5.7 90 0.7 NW 9 20 5 11 1001.5 1000.4 0.0
15/11:00pm 6.8 4.6 5.4 91 0.7 NNW 6 11 3 6 1001.8 1000.7 0.0
15/10:30pm 6.8 4.6 5.1 89 0.8 NNW 6 9 3 5 1002.1 1001.0 0.0
15/10:00pm 6.9 4.5 5.2 89 0.8 NNW 7 13 4 7 1002.1 1001.0 0.0
15/09:30pm 7.7 4.9 5.2 84 1.2 NW 9 17 5 9 1002.2 1001.1 0.0
15/09:00pm 8.9 5.0 5.3 78 1.7 NW 15 20 8 11 1002.0 1000.9 0.0
15/08:30pm 8.8 5.7 5.4 79 1.6 NW 11 19 6 10 1001.7 1000.6 0.0
15/08:00pm 8.8 6.4 5.2 78 1.7 NW 7 19 4 10 1001.2 1000.1 0.0
15/07:30pm 9.1 5.0 4.3 72 2.2 WNW 15 24 8 13 1001.0 999.9 0.0
15/07:00pm 10.4 6.9 5.6 72 2.3 NW 13 22 7 12 1000.4 999.3 0.0
15/06:30pm 11.6 7.0 5.5 66 2.9 WNW 19 30 10 16 1000.4 999.3 0.0
15/06:00pm 11.5 7.7 5.8 68 2.8 NW 15 30 8 16 999.8 998.6 0.0
15/05:30pm 12.9 9.3 6.9 67 3.0 NW 15 26 8 14 999.3 998.2 0.0
15/05:00pm 11.7 8.0 6.2 69 2.7 NW 15 26 8 14 999.2 998.1 0.0
15/04:30pm 12.0 7.3 6.1 67 2.9 WNW 20 28 11 15 999.2 998.1 0.0
15/04:00pm 12.4 7.7 6.2 66 3.1 WNW 20 33 11 18 999.2 998.1 0.0
15/03:30pm 13.8 10.0 7.6 66 3.2 NW 17 35 9 19 999.0 997.9 0.0
15/03:00pm 11.8 8.3 7.3 74 2.3 NNW 15 28 8 15 999.4 998.3 0.0
15/02:30pm 13.4 9.0 6.5 63 3.4 NW 19 33 10 18 999.8 998.6 0.0
15/02:00pm 12.3 7.9 6.4 67 2.9 NW 19 35 10 19 999.4 998.3 0.0
15/01:30pm 12.4 8.5 7.1 70 2.7 W 17 28 9 15 999.3 998.2 0.0
15/01:00pm 12.1 7.9 8.2 77 2.0 W 20 28 11 15 1000.1 999.0 0.0
15/12:30pm 11.4 6.3 5.9 69 2.7 W 22 35 12 19 1000.2 999.1 0.0
15/12:00pm 13.3 8.5 7.3 67 3.1 WNW 22 35 12 19 1000.7 999.6 0.0
15/11:30am 11.6 6.3 5.0 64 3.1 WNW 22 35 12 19 1001.5 1000.4 0.0
15/11:00am 11.6 6.4 5.7 67 2.9 NW 22 43 12 23 1001.5 1000.4 0.0
15/10:30am 11.9 8.5 7.8 76 2.1 NW 15 26 8 14 1001.8 1000.7 0.0
15/10:00am 10.1 8.3 7.9 86 1.1 NNW 7 13 4 7 1002.1 1001.0 0.0
15/09:30am 8.2 6.6 6.3 88 0.9 NNW 4 9 2 5 1003.1 1002.0 0.0
15/09:00am 8.1 6.9 6.4 89 0.8 N 2 7 1 4 1003.5 1002.4 19.0
15/08:30am 7.8 6.1 6.1 89 0.8 NNE 4 7 2 4 1003.3 1002.2 18.8
15/08:00am 7.6 5.3 5.7 88 0.9 NNW 7 15 4 8 1004.3 1003.3 18.8
15/07:30am 7.7 6.1 6.3 91 0.7 N 4 13 2 7 1003.7 1002.6 18.8
15/07:00am 7.1 5.7 5.4 89 0.8 N 2 6 1 3 1003.6 1002.5 18.8
15/06:30am 7.0 5.1 5.0 87 0.9 NNE 4 9 2 5 1003.5 1002.4 18.8
15/06:00am 7.5 5.2 4.8 83 1.2 NW 6 9 3 5 1002.6 1001.5 18.8
15/05:30am 8.1 4.1 4.7 79 1.6 NW 15 30 8 16 1003.1 1002.0 18.8
15/05:00am 8.2 5.5 5.5 83 1.3 NW 9 19 5 10 1004.6 1003.5 18.8
15/04:30am 8.2 5.0 5.3 82 1.4 WNW 11 17 6 9 1004.1 1003.1 18.8
15/04:00am 8.3 4.7 4.9 79 1.6 WNW 13 20 7 11 1003.8 1002.7 18.8
15/03:30am 8.7 4.3 6.7 87 1.0 W 19 32 10 17 1004.2 1003.2 18.6
15/03:00am 5.3 4.2 5.0 98 0.1 CALM 0 0 0 0 1003.6 1002.5 18.6
15/02:35am 5.7 4.6 5.3 97 0.2 CALM 0 0 0 0 1003.7 1002.6 18.6
15/02:30am 6.2 5.3 5.9 98 0.1 CALM 0 0 0 0 1003.8 1002.7 18.6
15/02:03am 5.7 4.6 5.3 97 0.2 CALM 0 0 0 0 1004.0 1003.0 18.6
15/02:00am 5.7 4.6 5.3 97 0.2 CALM 0 0 0 0 1004.0 1003.0 18.6
15/01:39am 6.8 6.0 6.5 98 0.1 CALM 0 0 0 0 1004.1 1003.1 18.6
15/01:30am 6.3 5.4 6.0 98 0.1 CALM 0 0 0 0 1004.1 1003.1 18.6
15/01:00am 6.7 5.9 6.3 97 0.2 CALM 0 0 0 0 1003.6 1002.5 18.6
15/12:30am 6.4 5.4 5.7 95 0.3 CALM 0 0 0 0 1003.2 1002.1 18.6
15/12:28am 6.6 5.7 6.0 96 0.3 CALM 0 0 0 0 1003.2 1002.1 18.6
15/12:00am 7.3 6.5 6.6 95 0.3 CALM 0 0 0 0 1003.4 1002.3 18.6
 
Date/Time
EDT
Temp
°C
App
Temp
°C
Dew
Point
°C
Rel
Hum
%
Delta-T
°C
Wind Press
QNH
hPa
Press
MSL
hPa
Rain since
9am
mm
Dir  Spd
km/h
Gust
km/h
Spd
kts
Gust
kts
14/11:30pm 8.1 7.5 7.5 96 0.3 CALM 0 4 0 2 1003.5 1002.4 18.6
14/11:00pm 8.2 7.6 7.4 95 0.4 CALM 0 0 0 0 1003.9 1002.8 17.8
14/10:30pm 9.2 8.8 8.1 93 0.5 CALM 0 0 0 0 1004.4 1003.4 16.8
14/10:00pm 10.2 9.3 9.1 93 0.6 NW 4 6 2 3 1004.7 1003.6 15.8
14/09:30pm 11.4 10.7 10.1 92 0.7 NW 4 7 2 4 1004.9 1003.8 14.6
14/09:00pm 11.7 10.4 9.9 89 1.0 WNW 7 13 4 7 1005.2 1004.1 13.2
14/08:30pm 12.1 10.1 10.3 89 1.0 NW 11 15 6 8 1004.8 1003.7 11.8
14/08:00pm 13.2 13.2 12.4 95 0.4 NNW 4 9 2 5 1004.7 1003.6 10.0
14/07:53pm 13.4 13.5 12.6 95 0.4 NNW 4 6 2 3 1004.9 1003.8 9.6
14/07:30pm 13.4 13.1 12.6 95 0.4 NNW 6 9 3 5 1004.3 1003.3 8.0
14/07:22pm 13.6 13.3 12.7 94 0.5 SW 6 9 3 5 1004.3 1003.3 7.4
14/07:00pm 13.2 13.5 12.1 93 0.6 NW 2 7 1 4 1003.9 1002.8 7.4
14/06:30pm 13.8 13.4 12.4 91 0.8 NE 6 11 3 6 1003.8 1002.7 7.4
14/06:00pm 14.2 14.3 12.8 91 0.8 N 4 9 2 5 1004.0 1003.0 7.2
14/05:30pm 14.5 14.4 13.2 92 0.7 NNE 6 15 3 8 1003.6 1002.5 7.2
14/05:00pm 13.6 13.6 12.3 92 0.7 E 4 7 2 4 1003.7 1002.6 6.6
14/04:30pm 13.9 13.9 12.5 91 0.8 NNE 4 7 2 4 1004.7 1003.6 5.2
14/04:26pm 14.1 14.2 12.7 91 0.8 NE 4 7 2 4 1004.6 1003.5 5.0
14/04:00pm 14.9 15.2 13.3 90 0.9 SE 4 11 2 6 1004.3 1003.3 4.4
14/03:42pm 15.0 14.5 13.7 92 0.8 ESE 9 13 5 7 1004.2 1003.2 4.4
14/03:30pm 14.3 14.5 12.9 91 0.8 SW 4 11 2 6 1004.7 1003.6 4.2
14/03:23pm 14.2 13.7 12.6 90 0.9 WSW 7 11 4 6 1004.9 1003.8 4.0
14/03:00pm 14.4 14.1 12.8 90 0.9 SSE 6 9 3 5 1004.8 1003.7 3.6
14/02:30pm 15.8 16.6 12.5 81 1.9 CALM 0 6 0 3 1005.2 1004.1 3.0
14/02:00pm 14.3 14.5 11.8 85 1.4 E 2 6 1 3 1005.9 1004.9 2.6
14/01:30pm 14.6 14.8 10.6 77 2.2 CALM 0 4 0 2 1006.5 1005.4 2.0
14/01:00pm 16.3 16.0 12.7 79 2.1 NE 6 9 3 5 1006.5 1005.4 2.0
14/12:30pm 15.9 15.5 12.5 80 1.9 NNE 6 11 3 6 1006.9 1005.9 1.8
14/12:00pm 14.5 14.0 12.0 85 1.4 NE 6 13 3 7 1007.3 1006.3 1.8
14/11:30am 13.6 12.5 10.0 79 1.9 NNW 6 13 3 7 1008.5 1007.5 1.6
14/11:00am 13.6 12.6 11.1 85 1.4 NW 7 13 4 7 1008.8 1007.8 1.6
14/10:30am 12.0 10.8 10.4 90 0.9 NW 7 13 4 7 1009.1 1008.1 1.4
14/10:00am 12.1 11.5 10.5 90 0.9 N 4 7 2 4 1009.2 1008.3 1.4
14/09:30am 11.1 11.2 10.0 93 0.6 CALM 0 2 0 1 1009.4 1008.4 1.0
14/09:00am 10.3 8.6 9.7 96 0.3 ENE 9 13 5 7 1009.2 1008.3 11.0
14/08:30am 10.2 9.8 9.6 96 0.3 NNW 2 6 1 3 1010.5 1009.6 9.6
14/08:00am 9.9 8.6 9.3 96 0.3 E 6 7 3 4 1010.0 1009.0 8.2
14/07:30am 9.5 8.5 8.7 95 0.4 SW 4 11 2 6 1009.4 1008.4 6.4
14/07:00am 9.3 8.2 8.5 95 0.4 NW 4 7 2 4 1010.1 1009.1 4.2
14/06:30am 9.6 8.5 8.5 93 0.6 SSW 4 7 2 4 1009.0 1008.0 2.8
14/06:12am 9.9 7.0 8.2 89 0.9 WSW 13 20 7 11 1009.2 1008.3 2.6
14/06:00am 10.7 7.8 8.3 85 1.2 WSW 13 22 7 12 1009.4 1008.4 2.4
14/05:30am 11.4 11.2 10.3 93 0.6 N 2 6 1 3 1008.8 1007.8 2.4
14/05:00am 11.4 11.2 10.3 93 0.6 NNE 2 6 1 3 1008.6 1007.6 2.4
14/04:30am 11.5 10.3 10.4 93 0.6 NNE 7 17 4 9 1008.5 1007.5 2.4
14/04:00am 11.6 10.7 10.5 93 0.6 N 6 9 3 5 1008.4 1007.4 2.4
14/03:30am 11.6 10.5 10.5 93 0.6 NNE 7 17 4 9 1008.6 1007.6 2.4
14/03:00am 11.5 10.0 10.7 95 0.4 NNE 9 15 5 8 1008.9 1007.9 2.4
14/02:37am 11.5 10.0 10.7 95 0.4 NNE 9 19 5 10 1009.4 1008.4 2.4
14/02:32am 11.4 9.9 10.5 94 0.5 NNE 9 17 5 9 1009.5 1008.5 2.4
14/02:30am 11.3 9.8 10.4 94 0.5 NNE 9 17 5 9 1009.4 1008.4 2.4
14/02:00am 11.7 10.6 10.6 93 0.6 NNE 7 19 4 10 1010.0 1009.0 2.2
14/01:30am 11.6 10.1 10.5 93 0.6 NNE 9 22 5 12 1010.1 1009.1 2.0
14/01:00am 11.6 10.5 10.5 93 0.6 NNE 7 17 4 9 1010.7 1009.8 2.0
14/12:30am 11.6 10.5 10.7 94 0.5 NNE 7 20 4 11 1011.1 1010.1 2.0
14/12:00am 11.7 9.9 10.8 94 0.5 NNE 11 20 6 11 1011.4 1010.4 2.0
 
Date/Time
EDT
Temp
°C
App
Temp
°C
Dew
Point
°C
Rel
Hum
%
Delta-T
°C
Wind Press
QNH
hPa
Press
MSL
hPa
Rain since
9am
mm
Dir  Spd
km/h
Gust
km/h
Spd
kts
Gust
kts
13/11:30pm 11.5 10.7 10.9 96 0.3 NNE 6 13 3 7 1011.9 1011.0 2.0
13/11:00pm 11.5 10.7 10.9 96 0.3 NNE 6 13 3 7 1012.3 1011.4 2.0
13/10:30pm 11.4 10.4 10.9 97 0.3 NNE 7 13 4 7 1012.8 1011.8 1.4
13/10:00pm 11.1 11.3 10.6 97 0.3 CALM 0 0 0 0 1013.0 1012.0 1.0
13/09:30pm 10.9 11.0 10.3 96 0.3 CALM 0 0 0 0 1013.1 1012.1 1.0
13/09:00pm 10.8 10.1 10.2 96 0.3 SE 4 6 2 3 1013.2 1012.3 1.0
13/08:30pm 10.8 9.8 10.2 96 0.3 SSE 6 7 3 4 1013.2 1012.3 1.0
13/08:00pm 10.8 9.8 10.2 96 0.3 SSE 6 7 3 4 1013.1 1012.1 0.8
13/07:30pm 10.8 9.8 10.2 96 0.3 SE 6 9 3 5 1013.0 1012.0 0.8
13/07:00pm 10.8 9.2 10.2 96 0.3 ESE 9 15 5 8 1013.1 1012.1 0.8
13/06:30pm 10.9 8.9 10.3 96 0.3 ESE 11 15 6 8 1013.0 1012.0 0.8
13/06:00pm 10.8 9.1 10.0 95 0.4 ESE 9 13 5 7 1013.2 1012.3 0.8
13/05:30pm 10.6 8.5 9.8 95 0.4 ESE 11 13 6 7 1013.2 1012.3 0.8
13/05:00pm 10.2 8.8 9.4 95 0.4 SE 7 9 4 5 1013.4 1012.5 0.6
13/04:30pm 10.4 8.2 9.3 93 0.6 ESE 11 13 6 7 1013.5 1012.6 0.4
13/04:00pm 10.5 8.6 9.1 91 0.7 ESE 9 13 5 7 1013.7 1012.8 0.4
13/03:34pm 10.6 9.1 9.2 91 0.7 ESE 7 11 4 6 1013.9 1013.0 0.4
13/03:30pm 10.6 9.1 9.2 91 0.7 ESE 7 11 4 6 1013.9 1013.0 0.4
13/03:00pm 10.8 8.5 9.1 89 0.9 ENE 11 17 6 9 1014.3 1013.3 0.2
13/02:30pm 10.9 7.7 8.3 84 1.3 ENE 15 22 8 12 1014.6 1013.7 0.2
13/02:00pm 10.9 7.3 8.3 84 1.3 ENE 17 22 9 12 1014.6 1013.7 0.2
13/01:30pm 11.3 7.3 8.3 82 1.5 ENE 19 28 10 15 1014.9 1014.0 0.2

Latest Capital City Observations: Canberra | Sydney | Melbourne | Brisbane | Adelaide | Perth | Hobart | Darwin

Other formats

Comma delimited format used in spreadsheet applications
http://www.bom.gov.au/fwo/IDN60903/IDN60903.94927.axf

JavaScript Object Notation format (JSON) in row-major order
http://www.bom.gov.au/fwo/IDN60903/IDN60903.94927.json

Data quality

Most of these data are generated automatically and are frequently updated. Quality checks on data are not normally performed. It is possible for incorrect values to appear. Refer to information at About Latest Weather Observations and please check the disclaimer before using these data.